sensor_id;sensor_type;location;lat;lon;timestamp;P1;durP1;ratioP1;P2;durP2;ratioP2
39128;SDS011;24864;49.940;19.770;2023-05-10T00:01:45;22.23;;;12.02;;
39128;SDS011;24864;49.940;19.770;2023-05-10T00:04:13;19.05;;;11.55;;
39128;SDS011;24864;49.940;19.770;2023-05-10T00:06:41;18.63;;;11.77;;
39128;SDS011;24864;49.940;19.770;2023-05-10T00:09:09;19.00;;;11.95;;
39128;SDS011;24864;49.940;19.770;2023-05-10T00:11:38;20.17;;;12.43;;
39128;SDS011;24864;49.940;19.770;2023-05-10T00:14:06;19.02;;;10.80;;
39128;SDS011;24864;49.940;19.770;2023-05-10T00:16:34;22.27;;;13.05;;
39128;SDS011;24864;49.940;19.770;2023-05-10T00:19:04;15.63;;;11.00;;
39128;SDS011;24864;49.940;19.770;2023-05-10T00:21:32;16.45;;;11.10;;
39128;SDS011;24864;49.940;19.770;2023-05-10T00:24:01;19.95;;;10.90;;
39128;SDS011;24864;49.940;19.770;2023-05-10T00:26:29;25.55;;;12.52;;
39128;SDS011;24864;49.940;19.770;2023-05-10T00:28:57;24.25;;;11.77;;
39128;SDS011;24864;49.940;19.770;2023-05-10T00:31:26;14.35;;;10.07;;
39128;SDS011;24864;49.940;19.770;2023-05-10T00:33:55;16.55;;;11.13;;
39128;SDS011;24864;49.940;19.770;2023-05-10T00:36:25;16.70;;;10.68;;
39128;SDS011;24864;49.940;19.770;2023-05-10T00:38:54;19.20;;;11.20;;
39128;SDS011;24864;49.940;19.770;2023-05-10T00:41:22;26.13;;;11.50;;
39128;SDS011;24864;49.940;19.770;2023-05-10T00:43:50;24.27;;;11.02;;
39128;SDS011;24864;49.940;19.770;2023-05-10T00:46:19;18.92;;;10.80;;
39128;SDS011;24864;49.940;19.770;2023-05-10T00:48:47;15.38;;;10.85;;
39128;SDS011;24864;49.940;19.770;2023-05-10T00:51:16;23.10;;;11.75;;
39128;SDS011;24864;49.940;19.770;2023-05-10T00:53:46;18.25;;;10.65;;
39128;SDS011;24864;49.940;19.770;2023-05-10T00:56:14;17.88;;;10.65;;
39128;SDS011;24864;49.940;19.770;2023-05-10T00:58:43;17.77;;;11.38;;
39128;SDS011;24864;49.940;19.770;2023-05-10T01:04:05;18.70;;;10.85;;
39128;SDS011;24864;49.940;19.770;2023-05-10T01:06:35;19.85;;;11.88;;
39128;SDS011;24864;49.940;19.770;2023-05-10T01:09:04;17.13;;;11.30;;
39128;SDS011;24864;49.940;19.770;2023-05-10T01:11:33;19.27;;;11.68;;
39128;SDS011;24864;49.940;19.770;2023-05-10T01:14:02;23.73;;;12.38;;
39128;SDS011;24864;49.940;19.770;2023-05-10T01:16:31;23.92;;;12.48;;
39128;SDS011;24864;49.940;19.770;2023-05-10T01:19:00;21.58;;;12.85;;
39128;SDS011;24864;49.940;19.770;2023-05-10T01:21:30;26.33;;;12.95;;
39128;SDS011;24864;49.940;19.770;2023-05-10T01:24:24;28.58;;;13.75;;
39128;SDS011;24864;49.940;19.770;2023-05-10T01:27:35;20.40;;;13.20;;
39128;SDS011;24864;49.940;19.770;2023-05-10T01:30:35;21.45;;;12.82;;
39128;SDS011;24864;49.940;19.770;2023-05-10T01:33:16;19.65;;;12.32;;
39128;SDS011;24864;49.940;19.770;2023-05-10T01:38:17;23.33;;;13.50;;
39128;SDS011;24864;49.940;19.770;2023-05-10T01:40:52;26.30;;;14.52;;
39128;SDS011;24864;49.940;19.770;2023-05-10T01:43:28;27.25;;;14.68;;
39128;SDS011;24864;49.940;19.770;2023-05-10T01:45:59;28.93;;;15.20;;
39128;SDS011;24864;49.940;19.770;2023-05-10T01:48:38;21.27;;;14.38;;
39128;SDS011;24864;49.940;19.770;2023-05-10T01:51:13;21.38;;;13.65;;
39128;SDS011;24864;49.940;19.770;2023-05-10T01:53:44;23.33;;;13.60;;
39128;SDS011;24864;49.940;19.770;2023-05-10T01:56:14;26.88;;;13.20;;
39128;SDS011;24864;49.940;19.770;2023-05-10T01:58:43;23.90;;;14.18;;
39128;SDS011;24864;49.940;19.770;2023-05-10T02:01:11;22.38;;;13.13;;
39128;SDS011;24864;49.940;19.770;2023-05-10T02:03:42;23.10;;;13.88;;
39128;SDS011;24864;49.940;19.770;2023-05-10T02:06:11;19.88;;;12.82;;
39128;SDS011;24864;49.940;19.770;2023-05-10T02:08:41;24.83;;;13.93;;
39128;SDS011;24864;49.940;19.770;2023-05-10T02:11:09;19.33;;;13.35;;
39128;SDS011;24864;49.940;19.770;2023-05-10T02:13:39;22.58;;;13.38;;
39128;SDS011;24864;49.940;19.770;2023-05-10T02:16:07;26.58;;;13.88;;
39128;SDS011;24864;49.940;19.770;2023-05-10T02:18:36;27.85;;;14.18;;
39128;SDS011;24864;49.940;19.770;2023-05-10T02:21:05;19.83;;;13.75;;
39128;SDS011;24864;49.940;19.770;2023-05-10T02:23:35;25.63;;;16.13;;
39128;SDS011;24864;49.940;19.770;2023-05-10T02:26:04;25.73;;;15.35;;
39128;SDS011;24864;49.940;19.770;2023-05-10T02:28:33;26.77;;;15.38;;
39128;SDS011;24864;49.940;19.770;2023-05-10T02:31:04;25.55;;;14.40;;
39128;SDS011;24864;49.940;19.770;2023-05-10T02:33:33;25.50;;;15.35;;
39128;SDS011;24864;49.940;19.770;2023-05-10T02:36:02;28.25;;;14.90;;
39128;SDS011;24864;49.940;19.770;2023-05-10T02:38:32;21.40;;;13.57;;
39128;SDS011;24864;49.940;19.770;2023-05-10T02:41:01;25.67;;;14.32;;
39128;SDS011;24864;49.940;19.770;2023-05-10T02:43:30;26.08;;;14.43;;
39128;SDS011;24864;49.940;19.770;2023-05-10T02:45:59;23.92;;;12.95;;
39128;SDS011;24864;49.940;19.770;2023-05-10T02:48:28;24.55;;;15.05;;
39128;SDS011;24864;49.940;19.770;2023-05-10T02:50:59;26.27;;;14.88;;
39128;SDS011;24864;49.940;19.770;2023-05-10T02:53:33;26.33;;;14.80;;
39128;SDS011;24864;49.940;19.770;2023-05-10T02:56:05;24.52;;;15.05;;
39128;SDS011;24864;49.940;19.770;2023-05-10T02:58:41;25.55;;;15.07;;
39128;SDS011;24864;49.940;19.770;2023-05-10T03:01:09;25.02;;;15.38;;
39128;SDS011;24864;49.940;19.770;2023-05-10T03:03:37;20.45;;;14.32;;
39128;SDS011;24864;49.940;19.770;2023-05-10T03:06:06;25.73;;;14.77;;
39128;SDS011;24864;49.940;19.770;2023-05-10T03:08:36;27.20;;;15.05;;
39128;SDS011;24864;49.940;19.770;2023-05-10T03:11:09;26.50;;;15.20;;
39128;SDS011;24864;49.940;19.770;2023-05-10T03:13:49;25.45;;;15.55;;
39128;SDS011;24864;49.940;19.770;2023-05-10T03:16:25;22.40;;;15.88;;
39128;SDS011;24864;49.940;19.770;2023-05-10T03:19:00;29.05;;;17.55;;
39128;SDS011;24864;49.940;19.770;2023-05-10T03:21:33;27.23;;;16.20;;
39128;SDS011;24864;49.940;19.770;2023-05-10T03:24:06;25.75;;;16.05;;
39128;SDS011;24864;49.940;19.770;2023-05-10T03:26:38;27.27;;;16.17;;
39128;SDS011;24864;49.940;19.770;2023-05-10T03:29:06;27.38;;;15.45;;
39128;SDS011;24864;49.940;19.770;2023-05-10T03:31:36;23.00;;;15.50;;
39128;SDS011;24864;49.940;19.770;2023-05-10T03:34:06;26.40;;;15.77;;
39128;SDS011;24864;49.940;19.770;2023-05-10T03:36:34;30.83;;;15.60;;
39128;SDS011;24864;49.940;19.770;2023-05-10T03:39:03;28.48;;;15.95;;
39128;SDS011;24864;49.940;19.770;2023-05-10T03:41:32;27.65;;;15.55;;
39128;SDS011;24864;49.940;19.770;2023-05-10T03:44:00;27.73;;;15.60;;
39128;SDS011;24864;49.940;19.770;2023-05-10T03:46:28;26.02;;;16.73;;
39128;SDS011;24864;49.940;19.770;2023-05-10T03:48:57;26.75;;;15.60;;
39128;SDS011;24864;49.940;19.770;2023-05-10T03:51:25;22.77;;;15.20;;
39128;SDS011;24864;49.940;19.770;2023-05-10T03:53:54;23.50;;;15.20;;
39128;SDS011;24864;49.940;19.770;2023-05-10T03:56:22;26.45;;;15.57;;
39128;SDS011;24864;49.940;19.770;2023-05-10T03:58:52;25.17;;;14.85;;
39128;SDS011;24864;49.940;19.770;2023-05-10T04:01:20;20.17;;;13.60;;
39128;SDS011;24864;49.940;19.770;2023-05-10T04:03:49;20.60;;;13.27;;
39128;SDS011;24864;49.940;19.770;2023-05-10T04:06:17;20.60;;;13.48;;
39128;SDS011;24864;49.940;19.770;2023-05-10T04:08:45;22.45;;;13.65;;
39128;SDS011;24864;49.940;19.770;2023-05-10T04:11:14;25.92;;;13.90;;
39128;SDS011;24864;49.940;19.770;2023-05-10T04:13:42;21.88;;;13.52;;
39128;SDS011;24864;49.940;19.770;2023-05-10T04:16:11;21.23;;;12.52;;
39128;SDS011;24864;49.940;19.770;2023-05-10T04:18:40;15.65;;;11.90;;
39128;SDS011;24864;49.940;19.770;2023-05-10T04:21:11;19.38;;;12.65;;
39128;SDS011;24864;49.940;19.770;2023-05-10T04:23:40;21.30;;;12.88;;
39128;SDS011;24864;49.940;19.770;2023-05-10T04:26:08;25.02;;;13.02;;
39128;SDS011;24864;49.940;19.770;2023-05-10T04:28:37;19.30;;;11.65;;
39128;SDS011;24864;49.940;19.770;2023-05-10T04:31:05;16.73;;;11.55;;
39128;SDS011;24864;49.940;19.770;2023-05-10T04:33:36;17.85;;;12.20;;
39128;SDS011;24864;49.940;19.770;2023-05-10T04:36:05;26.75;;;11.85;;
39128;SDS011;24864;49.940;19.770;2023-05-10T04:38:33;24.05;;;12.73;;
39128;SDS011;24864;49.940;19.770;2023-05-10T04:41:05;17.30;;;11.68;;
39128;SDS011;24864;49.940;19.770;2023-05-10T04:43:34;16.33;;;10.63;;
39128;SDS011;24864;49.940;19.770;2023-05-10T04:46:02;20.13;;;11.52;;
39128;SDS011;24864;49.940;19.770;2023-05-10T04:48:31;13.25;;;9.32;;
39128;SDS011;24864;49.940;19.770;2023-05-10T04:51:00;14.95;;;10.25;;
39128;SDS011;24864;49.940;19.770;2023-05-10T04:53:30;19.13;;;10.23;;
39128;SDS011;24864;49.940;19.770;2023-05-10T04:55:58;17.67;;;11.25;;
39128;SDS011;24864;49.940;19.770;2023-05-10T04:58:26;13.40;;;9.55;;
39128;SDS011;24864;49.940;19.770;2023-05-10T05:00:55;12.13;;;9.45;;
39128;SDS011;24864;49.940;19.770;2023-05-10T05:03:23;15.73;;;10.77;;
39128;SDS011;24864;49.940;19.770;2023-05-10T05:05:51;13.50;;;9.35;;
39128;SDS011;24864;49.940;19.770;2023-05-10T05:08:21;18.67;;;10.85;;
39128;SDS011;24864;49.940;19.770;2023-05-10T05:10:50;14.18;;;9.65;;
39128;SDS011;24864;49.940;19.770;2023-05-10T05:13:18;19.08;;;11.70;;
39128;SDS011;24864;49.940;19.770;2023-05-10T05:15:47;20.65;;;12.10;;
39128;SDS011;24864;49.940;19.770;2023-05-10T05:18:15;21.48;;;12.40;;
39128;SDS011;24864;49.940;19.770;2023-05-10T05:20:43;17.88;;;11.65;;
39128;SDS011;24864;49.940;19.770;2023-05-10T05:23:11;23.33;;;11.65;;
39128;SDS011;24864;49.940;19.770;2023-05-10T05:25:41;17.15;;;11.93;;
39128;SDS011;24864;49.940;19.770;2023-05-10T05:28:09;16.75;;;11.02;;
39128;SDS011;24864;49.940;19.770;2023-05-10T05:30:37;17.83;;;11.70;;
39128;SDS011;24864;49.940;19.770;2023-05-10T05:33:06;18.67;;;13.05;;
39128;SDS011;24864;49.940;19.770;2023-05-10T05:35:34;15.45;;;10.95;;
39128;SDS011;24864;49.940;19.770;2023-05-10T05:38:03;19.48;;;11.45;;
39128;SDS011;24864;49.940;19.770;2023-05-10T05:40:31;16.50;;;11.32;;
39128;SDS011;24864;49.940;19.770;2023-05-10T05:43:01;21.83;;;11.80;;
39128;SDS011;24864;49.940;19.770;2023-05-10T05:45:29;17.27;;;10.43;;
39128;SDS011;24864;49.940;19.770;2023-05-10T05:47:57;17.80;;;10.85;;
39128;SDS011;24864;49.940;19.770;2023-05-10T05:50:25;16.35;;;10.82;;
39128;SDS011;24864;49.940;19.770;2023-05-10T05:52:54;14.05;;;10.50;;
39128;SDS011;24864;49.940;19.770;2023-05-10T05:55:23;18.38;;;10.65;;
39128;SDS011;24864;49.940;19.770;2023-05-10T05:57:52;18.05;;;11.40;;
39128;SDS011;24864;49.940;19.770;2023-05-10T06:00:22;15.80;;;11.10;;
39128;SDS011;24864;49.940;19.770;2023-05-10T06:02:50;18.30;;;11.05;;
39128;SDS011;24864;49.940;19.770;2023-05-10T06:05:19;15.13;;;10.20;;
39128;SDS011;24864;49.940;19.770;2023-05-10T06:07:47;12.73;;;9.50;;
39128;SDS011;24864;49.940;19.770;2023-05-10T06:10:16;14.82;;;9.90;;
39128;SDS011;24864;49.940;19.770;2023-05-10T06:12:44;17.98;;;11.30;;
39128;SDS011;24864;49.940;19.770;2023-05-10T06:15:12;17.48;;;9.93;;
39128;SDS011;24864;49.940;19.770;2023-05-10T06:17:42;12.32;;;10.55;;
39128;SDS011;24864;49.940;19.770;2023-05-10T06:20:11;17.20;;;10.65;;
39128;SDS011;24864;49.940;19.770;2023-05-10T06:22:40;15.60;;;9.90;;
39128;SDS011;24864;49.940;19.770;2023-05-10T06:25:09;12.95;;;9.10;;
39128;SDS011;24864;49.940;19.770;2023-05-10T06:27:38;11.68;;;8.75;;
39128;SDS011;24864;49.940;19.770;2023-05-10T06:30:06;13.50;;;10.18;;
39128;SDS011;24864;49.940;19.770;2023-05-10T06:32:39;22.63;;;13.10;;
39128;SDS011;24864;49.940;19.770;2023-05-10T06:35:09;20.10;;;12.50;;
39128;SDS011;24864;49.940;19.770;2023-05-10T06:37:37;15.77;;;10.50;;
39128;SDS011;24864;49.940;19.770;2023-05-10T06:40:06;15.52;;;11.38;;
39128;SDS011;24864;49.940;19.770;2023-05-10T06:42:36;22.50;;;13.30;;
39128;SDS011;24864;49.940;19.770;2023-05-10T06:45:04;28.55;;;14.80;;
39128;SDS011;24864;49.940;19.770;2023-05-10T06:47:33;21.83;;;13.43;;
39128;SDS011;24864;49.940;19.770;2023-05-10T06:50:05;31.00;;;14.55;;
39128;SDS011;24864;49.940;19.770;2023-05-10T06:52:35;23.80;;;13.88;;
39128;SDS011;24864;49.940;19.770;2023-05-10T06:55:04;20.10;;;11.20;;
39128;SDS011;24864;49.940;19.770;2023-05-10T06:57:33;23.05;;;11.50;;
39128;SDS011;24864;49.940;19.770;2023-05-10T07:00:01;18.27;;;9.50;;
39128;SDS011;24864;49.940;19.770;2023-05-10T07:02:32;12.25;;;8.02;;
39128;SDS011;24864;49.940;19.770;2023-05-10T07:05:00;9.95;;;6.55;;
39128;SDS011;24864;49.940;19.770;2023-05-10T07:07:29;14.73;;;6.63;;
39128;SDS011;24864;49.940;19.770;2023-05-10T07:09:59;11.10;;;7.32;;
39128;SDS011;24864;49.940;19.770;2023-05-10T07:12:27;10.63;;;6.78;;
39128;SDS011;24864;49.940;19.770;2023-05-10T07:14:55;11.73;;;5.95;;
39128;SDS011;24864;49.940;19.770;2023-05-10T07:17:24;11.15;;;6.05;;
39128;SDS011;24864;49.940;19.770;2023-05-10T07:19:52;7.85;;;5.38;;
39128;SDS011;24864;49.940;19.770;2023-05-10T07:22:20;7.95;;;4.63;;
39128;SDS011;24864;49.940;19.770;2023-05-10T07:24:49;9.00;;;5.22;;
39128;SDS011;24864;49.940;19.770;2023-05-10T07:27:18;8.68;;;4.53;;
39128;SDS011;24864;49.940;19.770;2023-05-10T07:29:46;8.57;;;4.95;;
39128;SDS011;24864;49.940;19.770;2023-05-10T07:32:15;7.70;;;4.68;;
39128;SDS011;24864;49.940;19.770;2023-05-10T07:34:44;8.00;;;4.03;;
39128;SDS011;24864;49.940;19.770;2023-05-10T07:37:12;13.98;;;4.57;;
39128;SDS011;24864;49.940;19.770;2023-05-10T07:39:40;14.50;;;4.88;;
39128;SDS011;24864;49.940;19.770;2023-05-10T07:42:08;5.97;;;4.40;;
39128;SDS011;24864;49.940;19.770;2023-05-10T07:44:38;6.70;;;4.70;;
39128;SDS011;24864;49.940;19.770;2023-05-10T07:47:06;6.38;;;4.65;;
39128;SDS011;24864;49.940;19.770;2023-05-10T07:49:35;7.85;;;4.88;;
39128;SDS011;24864;49.940;19.770;2023-05-10T07:52:03;7.25;;;5.10;;
39128;SDS011;24864;49.940;19.770;2023-05-10T07:54:31;7.72;;;4.28;;
39128;SDS011;24864;49.940;19.770;2023-05-10T07:57:00;4.18;;;3.35;;
39128;SDS011;24864;49.940;19.770;2023-05-10T07:59:28;10.55;;;3.70;;
39128;SDS011;24864;49.940;19.770;2023-05-10T08:01:58;5.30;;;4.07;;
39128;SDS011;24864;49.940;19.770;2023-05-10T08:04:27;9.93;;;3.97;;
39128;SDS011;24864;49.940;19.770;2023-05-10T08:06:55;7.82;;;4.38;;
39128;SDS011;24864;49.940;19.770;2023-05-10T08:09:23;8.30;;;4.18;;
39128;SDS011;24864;49.940;19.770;2023-05-10T08:11:52;7.68;;;4.35;;
39128;SDS011;24864;49.940;19.770;2023-05-10T08:14:20;9.23;;;3.75;;
39128;SDS011;24864;49.940;19.770;2023-05-10T08:16:48;5.57;;;3.70;;
39128;SDS011;24864;49.940;19.770;2023-05-10T08:19:18;4.78;;;3.65;;
39128;SDS011;24864;49.940;19.770;2023-05-10T08:21:48;7.65;;;3.78;;
39128;SDS011;24864;49.940;19.770;2023-05-10T08:24:16;3.70;;;2.40;;
39128;SDS011;24864;49.940;19.770;2023-05-10T08:26:44;4.25;;;2.97;;
39128;SDS011;24864;49.940;19.770;2023-05-10T08:29:14;4.70;;;1.90;;
39128;SDS011;24864;49.940;19.770;2023-05-10T08:31:42;3.67;;;2.20;;
39128;SDS011;24864;49.940;19.770;2023-05-10T08:34:11;3.03;;;1.70;;
39128;SDS011;24864;49.940;19.770;2023-05-10T08:36:41;3.03;;;2.00;;
39128;SDS011;24864;49.940;19.770;2023-05-10T08:39:09;6.43;;;1.92;;
39128;SDS011;24864;49.940;19.770;2023-05-10T08:41:53;4.15;;;1.95;;
39128;SDS011;24864;49.940;19.770;2023-05-10T08:44:22;5.72;;;2.40;;
39128;SDS011;24864;49.940;19.770;2023-05-10T08:46:51;5.07;;;2.42;;
39128;SDS011;24864;49.940;19.770;2023-05-10T08:49:21;2.90;;;2.10;;
39128;SDS011;24864;49.940;19.770;2023-05-10T08:51:53;3.70;;;1.92;;
39128;SDS011;24864;49.940;19.770;2023-05-10T08:56:51;2.17;;;1.75;;
39128;SDS011;24864;49.940;19.770;2023-05-10T08:59:19;2.35;;;2.13;;
39128;SDS011;24864;49.940;19.770;2023-05-10T09:01:48;5.57;;;1.98;;
39128;SDS011;24864;49.940;19.770;2023-05-10T09:04:17;4.30;;;2.00;;
39128;SDS011;24864;49.940;19.770;2023-05-10T09:06:45;4.45;;;1.92;;
39128;SDS011;24864;49.940;19.770;2023-05-10T09:09:15;2.55;;;1.80;;
39128;SDS011;24864;49.940;19.770;2023-05-10T09:11:43;3.85;;;2.05;;
39128;SDS011;24864;49.940;19.770;2023-05-10T09:14:12;4.25;;;2.30;;
39128;SDS011;24864;49.940;19.770;2023-05-10T09:16:40;4.57;;;1.80;;
39128;SDS011;24864;49.940;19.770;2023-05-10T09:19:09;2.50;;;1.48;;
39128;SDS011;24864;49.940;19.770;2023-05-10T09:21:38;4.05;;;1.77;;
39128;SDS011;24864;49.940;19.770;2023-05-10T09:24:06;3.10;;;1.88;;
39128;SDS011;24864;49.940;19.770;2023-05-10T09:26:39;2.70;;;1.80;;
39128;SDS011;24864;49.940;19.770;2023-05-10T09:29:13;4.00;;;1.55;;
39128;SDS011;24864;49.940;19.770;2023-05-10T09:31:45;4.45;;;2.10;;
39128;SDS011;24864;49.940;19.770;2023-05-10T09:34:17;2.55;;;1.83;;
39128;SDS011;24864;49.940;19.770;2023-05-10T09:36:50;4.85;;;2.13;;
39128;SDS011;24864;49.940;19.770;2023-05-10T09:39:19;4.72;;;1.50;;
39128;SDS011;24864;49.940;19.770;2023-05-10T09:41:50;1.80;;;1.60;;
39128;SDS011;24864;49.940;19.770;2023-05-10T09:44:19;4.82;;;1.67;;
39128;SDS011;24864;49.940;19.770;2023-05-10T09:46:50;2.83;;;1.88;;
39128;SDS011;24864;49.940;19.770;2023-05-10T09:49:20;3.10;;;1.70;;
39128;SDS011;24864;49.940;19.770;2023-05-10T09:52:02;12.80;;;1.63;;
39128;SDS011;24864;49.940;19.770;2023-05-10T09:54:31;5.47;;;1.90;;
39128;SDS011;24864;49.940;19.770;2023-05-10T09:57:01;4.63;;;1.65;;
39128;SDS011;24864;49.940;19.770;2023-05-10T09:59:33;5.07;;;1.85;;
39128;SDS011;24864;49.940;19.770;2023-05-10T10:02:02;4.40;;;1.77;;
39128;SDS011;24864;49.940;19.770;2023-05-10T10:04:31;4.53;;;2.50;;
39128;SDS011;24864;49.940;19.770;2023-05-10T10:07:00;4.88;;;2.13;;
39128;SDS011;24864;49.940;19.770;2023-05-10T10:09:29;2.83;;;1.92;;
39128;SDS011;24864;49.940;19.770;2023-05-10T10:11:58;4.30;;;1.90;;
39128;SDS011;24864;49.940;19.770;2023-05-10T10:14:28;3.50;;;1.98;;
39128;SDS011;24864;49.940;19.770;2023-05-10T10:16:57;4.90;;;2.63;;
39128;SDS011;24864;49.940;19.770;2023-05-10T10:19:33;5.13;;;2.38;;
39128;SDS011;24864;49.940;19.770;2023-05-10T10:22:03;3.20;;;1.80;;
39128;SDS011;24864;49.940;19.770;2023-05-10T10:24:31;9.43;;;2.75;;
39128;SDS011;24864;49.940;19.770;2023-05-10T10:27:01;5.28;;;1.95;;
39128;SDS011;24864;49.940;19.770;2023-05-10T10:29:36;3.08;;;1.65;;
39128;SDS011;24864;49.940;19.770;2023-05-10T10:32:10;3.50;;;2.22;;
39128;SDS011;24864;49.940;19.770;2023-05-10T10:34:46;8.50;;;2.15;;
39128;SDS011;24864;49.940;19.770;2023-05-10T10:37:15;4.85;;;1.60;;
39128;SDS011;24864;49.940;19.770;2023-05-10T10:39:43;4.22;;;2.10;;
39128;SDS011;24864;49.940;19.770;2023-05-10T10:42:11;2.70;;;1.90;;
39128;SDS011;24864;49.940;19.770;2023-05-10T10:44:41;3.15;;;1.92;;
39128;SDS011;24864;49.940;19.770;2023-05-10T10:47:21;3.85;;;2.10;;
39128;SDS011;24864;49.940;19.770;2023-05-10T10:49:51;3.08;;;2.08;;
39128;SDS011;24864;49.940;19.770;2023-05-10T10:52:30;3.00;;;2.10;;
39128;SDS011;24864;49.940;19.770;2023-05-10T10:55:01;4.95;;;2.72;;
39128;SDS011;24864;49.940;19.770;2023-05-10T10:57:32;3.30;;;1.80;;
39128;SDS011;24864;49.940;19.770;2023-05-10T11:00:20;3.00;;;2.13;;
39128;SDS011;24864;49.940;19.770;2023-05-10T11:02:54;3.05;;;2.05;;
39128;SDS011;24864;49.940;19.770;2023-05-10T11:08:14;6.30;;;2.05;;
39128;SDS011;24864;49.940;19.770;2023-05-10T11:10:51;2.35;;;1.90;;
39128;SDS011;24864;49.940;19.770;2023-05-10T11:13:27;3.97;;;2.17;;
39128;SDS011;24864;49.940;19.770;2023-05-10T11:15:58;5.00;;;1.80;;
39128;SDS011;24864;49.940;19.770;2023-05-10T11:18:27;4.82;;;2.10;;
39128;SDS011;24864;49.940;19.770;2023-05-10T11:20:58;3.95;;;2.00;;
39128;SDS011;24864;49.940;19.770;2023-05-10T11:23:29;4.28;;;2.17;;
39128;SDS011;24864;49.940;19.770;2023-05-10T11:25:58;4.15;;;2.25;;
39128;SDS011;24864;49.940;19.770;2023-05-10T11:28:27;4.20;;;1.77;;
39128;SDS011;24864;49.940;19.770;2023-05-10T11:30:55;7.18;;;2.95;;
39128;SDS011;24864;49.940;19.770;2023-05-10T11:33:26;4.13;;;2.10;;
39128;SDS011;24864;49.940;19.770;2023-05-10T11:35:54;6.70;;;2.53;;
39128;SDS011;24864;49.940;19.770;2023-05-10T11:38:23;2.40;;;1.95;;
39128;SDS011;24864;49.940;19.770;2023-05-10T11:40:51;3.15;;;2.08;;
39128;SDS011;24864;49.940;19.770;2023-05-10T11:43:23;6.72;;;2.28;;
39128;SDS011;24864;49.940;19.770;2023-05-10T11:45:54;5.88;;;2.25;;
39128;SDS011;24864;49.940;19.770;2023-05-10T11:48:24;3.28;;;1.95;;
39128;SDS011;24864;49.940;19.770;2023-05-10T11:50:53;2.20;;;2.00;;
39128;SDS011;24864;49.940;19.770;2023-05-10T11:53:25;2.40;;;1.88;;
39128;SDS011;24864;49.940;19.770;2023-05-10T11:55:53;3.97;;;1.70;;
39128;SDS011;24864;49.940;19.770;2023-05-10T11:58:22;2.70;;;1.75;;
39128;SDS011;24864;49.940;19.770;2023-05-10T12:00:50;5.50;;;2.28;;
39128;SDS011;24864;49.940;19.770;2023-05-10T12:03:18;2.67;;;1.90;;
39128;SDS011;24864;49.940;19.770;2023-05-10T12:05:48;2.83;;;1.83;;
39128;SDS011;24864;49.940;19.770;2023-05-10T12:08:20;4.82;;;2.08;;
39128;SDS011;24864;49.940;19.770;2023-05-10T12:10:49;2.15;;;1.88;;
39128;SDS011;24864;49.940;19.770;2023-05-10T12:13:18;3.90;;;1.80;;
39128;SDS011;24864;49.940;19.770;2023-05-10T12:15:47;5.75;;;2.25;;
39128;SDS011;24864;49.940;19.770;2023-05-10T12:18:22;2.38;;;1.63;;
39128;SDS011;24864;49.940;19.770;2023-05-10T12:20:53;5.63;;;2.40;;
39128;SDS011;24864;49.940;19.770;2023-05-10T12:23:21;3.25;;;1.85;;
39128;SDS011;24864;49.940;19.770;2023-05-10T12:25:49;6.70;;;2.10;;
39128;SDS011;24864;49.940;19.770;2023-05-10T12:28:20;3.38;;;2.15;;
39128;SDS011;24864;49.940;19.770;2023-05-10T12:30:48;3.38;;;1.85;;
39128;SDS011;24864;49.940;19.770;2023-05-10T12:33:17;3.42;;;1.73;;
39128;SDS011;24864;49.940;19.770;2023-05-10T12:35:46;1.98;;;1.63;;
39128;SDS011;24864;49.940;19.770;2023-05-10T12:38:29;3.53;;;1.60;;
39128;SDS011;24864;49.940;19.770;2023-05-10T12:41:00;4.25;;;2.00;;
39128;SDS011;24864;49.940;19.770;2023-05-10T12:43:29;3.45;;;1.75;;
39128;SDS011;24864;49.940;19.770;2023-05-10T12:45:58;3.47;;;1.88;;
39128;SDS011;24864;49.940;19.770;2023-05-10T12:48:26;2.72;;;1.75;;
39128;SDS011;24864;49.940;19.770;2023-05-10T12:50:55;4.13;;;2.30;;
39128;SDS011;24864;49.940;19.770;2023-05-10T12:53:23;2.42;;;1.65;;
39128;SDS011;24864;49.940;19.770;2023-05-10T12:55:53;2.80;;;2.10;;
39128;SDS011;24864;49.940;19.770;2023-05-10T12:58:21;4.97;;;1.65;;
39128;SDS011;24864;49.940;19.770;2023-05-10T13:01:01;2.22;;;1.77;;
39128;SDS011;24864;49.940;19.770;2023-05-10T13:03:31;2.10;;;1.50;;
39128;SDS011;24864;49.940;19.770;2023-05-10T13:05:59;2.40;;;1.73;;
39128;SDS011;24864;49.940;19.770;2023-05-10T13:08:27;3.83;;;1.80;;
39128;SDS011;24864;49.940;19.770;2023-05-10T13:11:01;2.35;;;1.77;;
39128;SDS011;24864;49.940;19.770;2023-05-10T13:13:29;2.38;;;1.90;;
39128;SDS011;24864;49.940;19.770;2023-05-10T13:15:57;4.18;;;1.80;;
39128;SDS011;24864;49.940;19.770;2023-05-10T13:18:26;3.17;;;1.92;;
39128;SDS011;24864;49.940;19.770;2023-05-10T13:20:54;2.67;;;1.80;;
39128;SDS011;24864;49.940;19.770;2023-05-10T13:23:23;2.78;;;1.80;;
39128;SDS011;24864;49.940;19.770;2023-05-10T13:25:51;2.80;;;1.85;;
39128;SDS011;24864;49.940;19.770;2023-05-10T13:28:21;2.33;;;1.80;;
39128;SDS011;24864;49.940;19.770;2023-05-10T13:30:49;3.08;;;1.80;;
39128;SDS011;24864;49.940;19.770;2023-05-10T13:33:17;4.75;;;1.90;;
39128;SDS011;24864;49.940;19.770;2023-05-10T13:35:46;2.70;;;2.00;;
39128;SDS011;24864;49.940;19.770;2023-05-10T13:38:14;1.92;;;1.73;;
39128;SDS011;24864;49.940;19.770;2023-05-10T13:40:42;4.85;;;1.95;;
39128;SDS011;24864;49.940;19.770;2023-05-10T13:43:10;6.05;;;1.88;;
39128;SDS011;24864;49.940;19.770;2023-05-10T13:45:40;3.67;;;1.90;;
39128;SDS011;24864;49.940;19.770;2023-05-10T13:48:08;3.67;;;2.00;;
39128;SDS011;24864;49.940;19.770;2023-05-10T13:50:36;2.75;;;2.10;;
39128;SDS011;24864;49.940;19.770;2023-05-10T13:53:05;2.85;;;1.75;;
39128;SDS011;24864;49.940;19.770;2023-05-10T13:58:57;2.75;;;2.03;;
39128;SDS011;24864;49.940;19.770;2023-05-10T14:01:27;3.97;;;2.30;;
39128;SDS011;24864;49.940;19.770;2023-05-10T14:03:55;2.70;;;1.90;;
39128;SDS011;24864;49.940;19.770;2023-05-10T14:06:24;2.63;;;2.05;;
39128;SDS011;24864;49.940;19.770;2023-05-10T14:08:53;5.88;;;2.20;;
39128;SDS011;24864;49.940;19.770;2023-05-10T14:11:21;5.22;;;1.90;;
39128;SDS011;24864;49.940;19.770;2023-05-10T14:13:50;8.10;;;1.95;;
39128;SDS011;24864;49.940;19.770;2023-05-10T14:16:19;4.72;;;1.85;;
39128;SDS011;24864;49.940;19.770;2023-05-10T14:18:49;2.03;;;1.60;;
39128;SDS011;24864;49.940;19.770;2023-05-10T14:21:17;1.70;;;1.50;;
39128;SDS011;24864;49.940;19.770;2023-05-10T14:23:46;2.80;;;2.03;;
39128;SDS011;24864;49.940;19.770;2023-05-10T14:26:14;13.18;;;2.15;;
39128;SDS011;24864;49.940;19.770;2023-05-10T14:28:42;5.18;;;1.80;;
39128;SDS011;24864;49.940;19.770;2023-05-10T14:31:11;3.53;;;2.00;;
39128;SDS011;24864;49.940;19.770;2023-05-10T14:33:39;4.85;;;2.08;;
39128;SDS011;24864;49.940;19.770;2023-05-10T14:36:09;4.97;;;1.83;;
39128;SDS011;24864;49.940;19.770;2023-05-10T14:38:38;3.50;;;2.05;;
39128;SDS011;24864;49.940;19.770;2023-05-10T14:41:07;3.10;;;2.40;;
39128;SDS011;24864;49.940;19.770;2023-05-10T14:43:37;2.00;;;1.80;;
39128;SDS011;24864;49.940;19.770;2023-05-10T14:46:05;3.63;;;2.20;;
39128;SDS011;24864;49.940;19.770;2023-05-10T14:48:34;2.95;;;2.25;;
39128;SDS011;24864;49.940;19.770;2023-05-10T14:51:02;2.35;;;1.55;;
39128;SDS011;24864;49.940;19.770;2023-05-10T14:53:38;2.50;;;1.90;;